Time;durP1;ratioP1;P1;durP2;ratioP2;P2;SDS_P1;SDS_P2;PMS_P1;PMS_P2;Temp;Humidity;BMP_temperature;BMP_pressure;BME280_temperature;BME280_humidity;BME280_pressure;Samples;Min_cycle;Max_cycle;Signal;HPM_P1;HPM_P2
2022/06/30 00:00:04;;;;;;;;;;;;;;;23.81;54.17;100925.38;5054874;28;5253;-59
2022/06/30 00:02:36;;;;;;;;;;;;;;;23.80;54.33;100923.91;5055579;28;4186;-58
2022/06/30 00:05:03;;;;;;;;;;;;;;;23.81;54.28;100922.50;5052755;28;4150;-59
2022/06/30 00:07:29;;;;;;;;;;;;;;;23.81;54.24;100924.66;5055124;28;6573;-59
2022/06/30 00:09:55;;;;;;;;;;;;;;;23.81;54.15;100924.66;5056639;28;4354;-59
2022/06/30 00:12:22;;;;;;;;;;;;;;;23.80;54.14;100923.91;5054504;28;4249;-59
2022/06/30 00:14:48;;;;;;;;;;;;;;;23.80;54.19;100921.03;5057838;28;5322;-59
2022/06/30 00:17:14;;;;;;;;;;;;;;;23.81;54.49;100931.16;5056711;28;4246;-59
2022/06/30 00:19:42;;;;;;;;;;;;;;;23.80;54.51;100923.91;5056191;28;4174;-58
2022/06/30 00:22:10;;;;;;;;;;;;;;;23.80;54.56;100926.03;5057977;28;4296;-59
2022/06/30 00:24:37;;;;;;;;;;;;;;;23.80;54.70;100935.47;5056950;28;6389;-59
2022/06/30 00:27:04;;;;;;;;;;;;;;;23.81;54.63;100927.53;5051679;28;5199;-58
2022/06/30 00:29:31;;;;;;;;;;;;;;;23.80;54.65;100935.47;5058175;28;4214;-59
2022/06/30 00:31:57;;;;;;;;;;;;;;;23.81;54.66;100930.44;5056362;28;5262;-59
2022/06/30 00:34:23;;;;;;;;;;;;;;;23.80;54.72;100926.81;5055303;28;4200;-59
2022/06/30 00:36:50;;;;;;;;;;;;;;;23.81;54.60;100934.06;5055763;28;4342;-59
2022/06/30 00:39:16;;;;;;;;;;;;;;;23.81;54.77;100928.28;5057882;28;5507;-59
2022/06/30 00:41:43;;;;;;;;;;;;;;;23.81;54.71;100925.38;5055267;28;4234;-59
2022/06/30 00:44:13;;;;;;;;;;;;;;;23.81;54.79;100918.88;5055736;28;4246;-59
2022/06/30 00:46:39;;;;;;;;;;;;;;;23.80;54.81;100912.34;5054423;28;4371;-59
2022/06/30 00:49:06;;;;;;;;;;;;;;;23.80;54.85;100912.34;5054636;28;4218;-59
2022/06/30 00:51:32;;;;;;;;;;;;;;;23.80;54.69;100903.69;5055503;28;5460;-59
2022/06/30 00:54:00;;;;;;;;;;;;;;;23.80;54.88;100900.03;5051553;28;4270;-59
2022/06/30 00:56:27;;;;;;;;;;;;;;;23.80;54.78;100905.81;5052281;28;4240;-59
2022/06/30 00:58:54;;;;;;;;;;;;;;;23.80;54.80;100906.56;5052547;28;4191;-59
2022/06/30 01:01:20;;;;;;;;;;;;;;;23.81;54.76;100904.41;5048752;28;4196;-59
2022/06/30 01:03:47;;;;;;;;;;;;;;;23.81;54.71;100896.47;5058383;28;4339;-59
2022/06/30 01:06:13;;;;;;;;;;;;;;;23.81;54.63;100905.13;5053029;28;5258;-59
2022/06/30 01:08:39;;;;;;;;;;;;;;;23.82;54.40;100902.97;5054697;28;4153;-58
2022/06/30 01:13:51;;;;;;;;;;;;;;;23.80;54.64;100905.81;5054757;28;4155;-59
2022/06/30 01:16:19;;;;;;;;;;;;;;;23.80;54.48;100906.56;5053491;28;4241;-59
2022/06/30 01:18:46;;;;;;;;;;;;;;;23.80;54.69;100912.34;5041880;28;4053;-59
2022/06/30 01:21:12;;;;;;;;;;;;;;;23.79;54.74;100907.97;5052747;28;4122;-59
2022/06/30 01:23:38;;;;;;;;;;;;;;;23.79;54.61;100910.84;5056801;28;4242;-58
2022/06/30 01:26:05;;;;;;;;;;;;;;;23.78;54.80;100906.50;5051983;28;4061;-59
2022/06/30 01:28:31;;;;;;;;;;;;;;;23.78;54.81;100915.16;5051629;28;4190;-59
2022/06/30 01:30:58;;;;;;;;;;;;;;;23.78;54.74;100903.59;5047510;28;4226;-58
2022/06/30 01:33:24;;;;;;;;;;;;;;;23.77;54.83;100905.00;5053700;28;4218;-59
2022/06/30 01:35:50;;;;;;;;;;;;;;;23.76;54.91;100900.66;5053435;28;5217;-59
2022/06/30 01:38:19;;;;;;;;;;;;;;;23.77;55.02;100905.00;5053357;28;4217;-59
2022/06/30 01:40:46;;;;;;;;;;;;;;;23.77;54.95;100905.00;5054736;28;4197;-59
2022/06/30 01:43:13;;;;;;;;;;;;;;;23.78;55.01;100902.88;5056245;28;4421;-59
2022/06/30 01:45:39;;;;;;;;;;;;;;;23.78;55.16;100908.66;5050273;28;4220;-58
2022/06/30 01:48:06;;;;;;;;;;;;;;;23.77;55.25;100902.09;5050572;28;4223;-58
2022/06/30 01:50:33;;;;;;;;;;;;;;;23.78;55.13;100897.81;5054184;28;4137;-59
2022/06/30 01:52:59;;;;;;;;;;;;;;;23.77;55.03;100898.47;5056748;28;4229;-59
2022/06/30 01:55:26;;;;;;;;;;;;;;;23.77;55.10;100902.09;5052874;28;4271;-59
2022/06/30 01:57:52;;;;;;;;;;;;;;;23.79;55.24;100898.56;5052671;28;5262;-58
2022/06/30 02:00:19;;;;;;;;;;;;;;;23.77;55.25;100896.31;5047817;28;4430;-59
2022/06/30 02:02:45;;;;;;;;;;;;;;;23.77;55.20;100896.31;5053217;28;5214;-58
2022/06/30 02:05:12;;;;;;;;;;;;;;;23.77;55.43;100884.03;5055655;28;6352;-59
2022/06/30 02:07:39;;;;;;;;;;;;;;;23.77;55.21;100881.88;5054910;28;4183;-58
2022/06/30 02:10:06;;;;;;;;;;;;;;;23.77;55.29;100884.75;5054141;28;5501;-58
2022/06/30 02:12:45;;;;;;;;;;;;;;;23.77;55.58;100886.91;5054175;28;5262;-58
2022/06/30 02:15:12;;;;;;;;;;;;;;;23.75;55.24;100876.00;5048706;28;4177;-58
2022/06/30 02:17:39;;;;;;;;;;;;;;;23.77;55.54;100884.75;5051102;28;4275;-59
2022/06/30 02:20:07;;;;;;;;;;;;;;;23.76;55.65;100882.56;5052844;28;4172;-59
2022/06/30 02:22:34;;;;;;;;;;;;;;;23.77;55.76;100878.97;5051872;28;4201;-58
2022/06/30 02:25:00;;;;;;;;;;;;;;;23.76;55.66;100877.50;5056900;28;4231;-58
2022/06/30 02:27:27;;;;;;;;;;;;;;;23.76;55.50;100877.50;5053233;28;4180;-59
2022/06/30 02:29:53;;;;;;;;;;;;;;;23.75;55.87;100876.00;5053884;28;4217;-58
2022/06/30 02:32:20;;;;;;;;;;;;;;;23.74;55.55;100868.78;5052401;28;4227;-59
2022/06/30 02:34:46;;;;;;;;;;;;;;;23.74;55.74;100863.00;5053605;28;4299;-58
2022/06/30 02:37:13;;;;;;;;;;;;;;;23.74;55.75;100868.78;5051899;28;5122;-59
2022/06/30 02:39:39;;;;;;;;;;;;;;;23.75;55.85;100870.22;5052969;28;5284;-59
2022/06/30 02:42:05;;;;;;;;;;;;;;;23.75;56.03;100864.44;5057253;28;4222;-58
2022/06/30 02:44:32;;;;;;;;;;;;;;;23.75;56.05;100863.72;5056877;28;4198;-59
2022/06/30 02:46:58;;;;;;;;;;;;;;;23.74;55.86;100860.09;5055381;28;4404;-58
2022/06/30 02:49:24;;;;;;;;;;;;;;;23.75;56.13;100863.72;5056052;28;5240;-59
2022/06/30 02:51:51;;;;;;;;;;;;;;;23.74;55.90;100857.22;5058489;28;5224;-59
2022/06/30 02:54:17;;;;;;;;;;;;;;;23.73;55.92;100861.50;5055200;28;5254;-59
2022/06/30 02:56:44;;;;;;;;;;;;;;;23.73;56.08;100861.50;5058091;28;4149;-58
2022/06/30 02:59:10;;;;;;;;;;;;;;;23.74;56.08;100865.13;5054142;28;4158;-58
2022/06/30 03:01:37;;;;;;;;;;;;;;;23.73;56.02;100858.59;5056679;28;5250;-59
2022/06/30 03:04:03;;;;;;;;;;;;;;;23.74;56.27;100862.22;5056507;28;4308;-58
2022/06/30 03:06:30;;;;;;;;;;;;;;;23.73;56.14;100858.59;5048246;28;4088;-59
2022/06/30 03:08:56;;;;;;;;;;;;;;;23.73;56.36;100858.59;5058209;28;4300;-59
2022/06/30 03:11:22;;;;;;;;;;;;;;;23.73;56.30;100867.28;5054144;28;4380;-59
2022/06/30 03:14:09;;;;;;;;;;;;;;;23.73;56.32;100867.28;5058033;28;4236;-58
2022/06/30 03:16:35;;;;;;;;;;;;;;;23.74;56.12;100863.00;5055174;28;4198;-59
2022/06/30 03:19:02;;;;;;;;;;;;;;;23.73;56.29;100855.72;5057348;28;4157;-59
2022/06/30 03:21:28;;;;;;;;;;;;;;;23.74;56.60;100854.31;5053424;28;5312;-59
2022/06/30 03:23:54;;;;;;;;;;;;;;;23.74;56.33;100845.63;5059682;28;4433;-59
2022/06/30 03:26:21;;;;;;;;;;;;;;;23.73;56.55;100838.38;5055834;28;5364;-59
2022/06/30 03:28:47;;;;;;;;;;;;;;;23.73;56.60;100826.78;5055999;28;4263;-58
2022/06/30 03:31:13;;;;;;;;;;;;;;;23.74;56.79;100827.53;5054134;28;4261;-59
2022/06/30 03:33:40;;;;;;;;;;;;;;;23.74;56.77;100839.84;5056308;28;4126;-59
2022/06/30 03:36:06;;;;;;;;;;;;;;;23.74;56.48;100839.09;5055614;28;4212;-59
2022/06/30 03:38:33;;;;;;;;;;;;;;;23.73;56.42;100841.25;5058019;28;4044;-59
2022/06/30 03:40:59;;;;;;;;;;;;;;;23.73;56.57;100835.47;5055487;28;5473;-59
2022/06/30 03:43:25;;;;;;;;;;;;;;;23.74;56.75;100827.53;5052257;28;4235;-59
2022/06/30 03:45:52;;;;;;;;;;;;;;;23.75;56.52;100829.03;5058469;28;4039;-59
2022/06/30 03:48:18;;;;;;;;;;;;;;;23.74;56.65;100822.50;5055021;28;4227;-59
2022/06/30 03:50:44;;;;;;;;;;;;;;;23.74;56.53;100822.50;5058902;28;4161;-58
2022/06/30 03:53:11;;;;;;;;;;;;;;;23.74;56.81;100822.50;5054388;28;4321;-59
2022/06/30 03:55:39;;;;;;;;;;;;;;;23.74;56.78;100822.50;5054680;28;4177;-59
2022/06/30 03:58:08;;;;;;;;;;;;;;;23.74;56.46;100831.19;5055600;28;4056;-58
2022/06/30 04:00:34;;;;;;;;;;;;;;;23.74;56.75;100822.50;5056061;28;4369;-58
2022/06/30 04:03:04;;;;;;;;;;;;;;;23.74;56.78;100834.06;5052902;28;4312;-59
2022/06/30 04:05:30;;;;;;;;;;;;;;;23.73;56.64;100838.38;5056565;28;4378;-58
2022/06/30 04:07:57;;;;;;;;;;;;;;;23.74;56.67;100827.53;5053862;28;4357;-59
2022/06/30 04:10:23;;;;;;;;;;;;;;;23.73;56.81;100832.59;5056914;28;4268;-59
2022/06/30 04:12:50;;;;;;;;;;;;;;;23.73;56.77;100826.03;5049948;28;4231;-59
2022/06/30 04:15:16;;;;;;;;;;;;;;;23.73;56.81;100823.91;5051809;28;4086;-59
2022/06/30 04:17:42;;;;;;;;;;;;;;;23.73;56.39;100828.94;5058092;28;4159;-58
2022/06/30 04:20:15;;;;;;;;;;;;;;;23.73;56.64;100821.00;5053842;28;5403;-59
2022/06/30 04:22:43;;;;;;;;;;;;;;;23.73;56.73;100821.00;5055079;28;4147;-59
2022/06/30 04:25:09;;;;;;;;;;;;;;;23.73;56.65;100815.22;5054738;28;5303;-59
2022/06/30 04:27:36;;;;;;;;;;;;;;;23.73;56.78;100820.25;5058926;28;4284;-58
2022/06/30 04:30:02;;;;;;;;;;;;;;;23.73;56.49;100823.91;5056895;28;4213;-59
2022/06/30 04:32:38;;;;;;;;;;;;;;;23.72;56.93;100813.00;5056525;28;4221;-58
2022/06/30 04:35:07;;;;;;;;;;;;;;;23.71;56.85;100818.06;5053178;28;5451;-58
2022/06/30 04:37:34;;;;;;;;;;;;;;;23.72;56.91;100824.56;5056902;28;5458;-58
2022/06/30 04:42:45;;;;;;;;;;;;;;;23.71;56.88;100818.06;5057430;28;4235;-59
2022/06/30 04:45:11;;;;;;;;;;;;;;;23.72;56.68;100822.41;5054339;28;4141;-59
2022/06/30 04:47:38;;;;;;;;;;;;;;;23.71;56.89;100818.06;5053053;28;4366;-59
2022/06/30 04:50:04;;;;;;;;;;;;;;;23.72;56.90;100818.78;5050843;28;5406;-58
2022/06/30 04:52:31;;;;;;;;;;;;;;;23.71;57.04;100823.84;5051287;28;6452;-62
2022/06/30 04:55:03;;;;;;;;;;;;;;;23.61;58.43;100812.66;5051361;28;4186;-60
2022/06/30 04:57:29;;;;;;;;;;;;;;;23.54;59.43;100821.81;5053711;28;5483;-60
2022/06/30 04:59:56;;;;;;;;;;;;;;;23.19;58.79;100823.56;5049283;28;4079;-63
2022/06/30 05:02:25;;;;;;;;;;;;;;;22.95;59.70;100827.06;5052016;28;4186;-62
2022/06/30 05:04:52;;;;;;;;;;;;;;;22.81;60.27;100815.00;5049551;28;4231;-71
2022/06/30 05:07:18;;;;;;;;;;;;;;;23.22;58.95;100822.22;5052616;28;4196;-67
2022/06/30 05:09:45;;;;;;;;;;;;;;;23.30;58.57;100810.94;5052919;28;4224;-69
2022/06/30 05:12:11;;;;;;;;;;;;;;;23.24;58.88;100812.91;5054024;28;4211;-69
2022/06/30 05:14:38;;;;;;;;;;;;;;;23.41;58.69;100824.31;5050962;28;4192;-66
2022/06/30 05:17:04;;;;;;;;;;;;;;;23.17;59.18;100811.94;5051049;28;4244;-65
2022/06/30 05:19:31;;;;;;;;;;;;;;;23.25;58.53;100814.34;5054228;28;5611;-65
2022/06/30 05:21:58;;;;;;;;;;;;;;;23.25;58.73;100809.34;5050904;28;4242;-65
2022/06/30 05:27:09;;;;;;;;;;;;;;;23.25;58.78;100812.22;5065877;28;4191;-65
2022/06/30 05:29:35;;;;;;;;;;;;;;;23.35;58.91;100818.34;5046954;28;4178;-66
2022/06/30 05:32:02;;;;;;;;;;;;;;;23.15;58.66;100806.09;5047829;28;4237;-66
2022/06/30 05:34:28;;;;;;;;;;;;;;;23.33;58.51;100808.84;5051171;28;4188;-66
2022/06/30 05:36:54;;;;;;;;;;;;;;;23.43;58.68;100806.28;5053441;28;4243;-66
2022/06/30 05:39:21;;;;;;;;;;;;;;;23.31;59.04;100814.56;5050231;28;4230;-66
2022/06/30 05:41:47;;;;;;;;;;;;;;;23.25;59.17;100815.13;5053440;28;4245;-66
2022/06/30 05:44:13;;;;;;;;;;;;;;;23.32;58.75;100813.16;5049293;28;6522;-63
2022/06/30 05:46:40;;;;;;;;;;;;;;;23.37;59.20;100815.50;5050108;28;5493;-71
2022/06/30 05:49:08;;;;;;;;;;;;;;;23.46;59.26;100815.78;5043294;28;4183;-67
2022/06/30 05:51:34;;;;;;;;;;;;;;;23.55;58.63;100820.44;5049513;28;4338;-68
2022/06/30 05:54:01;;;;;;;;;;;;;;;23.58;58.62;100814.03;5048172;28;4046;-67
2022/06/30 05:56:27;;;;;;;;;;;;;;;23.55;58.39;100817.53;5059845;28;5515;-66
2022/06/30 05:58:54;;;;;;;;;;;;;;;23.76;58.70;100807.38;5051079;28;4177;-66
2022/06/30 06:01:20;;;;;;;;;;;;;;;23.74;58.00;100805.16;5051567;28;4550;-69
2022/06/30 06:03:47;;;;;;;;;;;;;;;23.73;58.02;100809.44;5046301;28;4199;-60
2022/06/30 06:06:13;;;;;;;;;;;;;;;23.67;58.82;100812.13;5050055;28;4191;-60
2022/06/30 06:08:40;;;;;;;;;;;;;;;23.77;58.77;100815.38;5051287;28;4229;-60
2022/06/30 06:11:07;;;;;;;;;;;;;;;23.82;58.32;100822.78;5053840;28;5514;-63
2022/06/30 06:13:33;;;;;;;;;;;;;;;23.86;58.37;100824.31;5050753;28;4250;-61
2022/06/30 06:15:59;;;;;;;;;;;;;;;23.82;58.36;100822.78;5052352;28;5286;-60
2022/06/30 06:18:26;;;;;;;;;;;;;;;23.89;57.75;100832.38;5052603;28;4259;-69
2022/06/30 06:20:52;;;;;;;;;;;;;;;23.88;58.24;100835.94;5049613;28;4299;-62
2022/06/30 06:23:39;;;;;;;;;;;;;;;23.85;57.98;100834.41;5049290;28;4161;-63
2022/06/30 06:26:05;;;;;;;;;;;;;;;23.73;58.38;100844.16;5045987;28;4262;-59
2022/06/30 06:31:17;;;;;;;;;;;;;;;23.81;58.17;100861.75;5045708;28;4263;-65
2022/06/30 06:33:45;;;;;;;;;;;;;;;23.71;58.40;100852.75;5045603;28;4159;-65
2022/06/30 06:36:12;;;;;;;;;;;;;;;23.73;58.55;100855.72;5053400;28;4240;-68
2022/06/30 06:38:38;;;;;;;;;;;;;;;23.68;58.78;100864.91;5053276;28;4174;-68
2022/06/30 06:41:07;;;;;;;;;;;;;;;23.66;58.58;100847.50;5053016;28;5298;-68
2022/06/30 06:43:37;;;;;;;;;;;;;;;23.58;59.11;100845.81;5051952;28;4203;-66
2022/06/30 06:46:03;;;;;;;;;;;;;;;23.59;59.20;100843.66;5053047;28;4235;-68
2022/06/30 06:48:30;;;;;;;;;;;;;;;23.37;59.49;100844.41;5041936;28;5473;-68
2022/06/30 06:50:59;;;;;;;;;;;;;;;23.27;59.65;100846.22;5052642;28;4076;-66
2022/06/30 06:53:25;;;;;;;;;;;;;;;23.50;59.43;100844.81;5052537;28;5345;-65
2022/06/30 06:55:52;;;;;;;;;;;;;;;23.76;59.62;100847.88;5046397;28;4092;-63
2022/06/30 06:58:19;;;;;;;;;;;;;;;23.89;59.05;100843.19;5053291;28;5303;-65
2022/06/30 07:00:46;;;;;;;;;;;;;;;24.00;58.53;100842.09;5052797;28;4216;-63
2022/06/30 07:03:13;;;;;;;;;;;;;;;24.00;58.59;100839.94;5052757;28;4229;-63
2022/06/30 07:05:39;;;;;;;;;;;;;;;24.06;58.32;100833.63;5051046;28;4289;-65
2022/06/30 07:08:06;;;;;;;;;;;;;;;24.09;58.15;100832.25;5052196;28;5441;-63
2022/06/30 07:10:41;;;;;;;;;;;;;;;24.13;58.37;100838.16;5054426;28;4234;-64
2022/06/30 07:13:07;;;;;;;;;;;;;;;24.24;58.13;100845.75;5049785;28;5451;-65
2022/06/30 07:15:34;;;;;;;;;;;;;;;24.21;57.99;100844.22;5049725;28;4286;-65
2022/06/30 07:18:00;;;;;;;;;;;;;;;24.20;58.05;100845.63;5048454;28;5279;-63
2022/06/30 07:20:28;;;;;;;;;;;;;;;24.14;58.45;100854.09;5051156;28;5345;-63
2022/06/30 07:22:55;;;;;;;;;;;;;;;24.21;58.07;100852.13;5050545;28;4265;-61
2022/06/30 07:25:41;;;;;;;;;;;;;;;24.25;58.05;100855.16;5045261;28;4214;-60
2022/06/30 07:28:07;;;;;;;;;;;;;;;24.24;58.06;100854.44;5050456;28;4251;-62
2022/06/30 07:30:34;;;;;;;;;;;;;;;24.19;58.36;100849.94;5055801;28;5285;-63
2022/06/30 07:33:00;;;;;;;;;;;;;;;24.27;57.90;100863.91;5053561;28;4289;-61
2022/06/30 07:35:33;;;;;;;;;;;;;;;24.23;58.08;100858.75;5059469;28;5214;-62
2022/06/30 07:38:00;;;;;;;;;;;;;;;24.33;57.95;100857.56;5052468;28;4230;-63
2022/06/30 07:40:26;;;;;;;;;;;;;;;24.39;57.78;100843.25;5055652;28;4454;-62
2022/06/30 07:42:52;;;;;;;;;;;;;;;24.46;57.97;100839.13;5055924;28;4186;-60
2022/06/30 07:45:21;;;;;;;;;;;;;;;24.23;58.67;100847.16;5057929;28;4250;-64
2022/06/30 07:47:48;;;;;;;;;;;;;;;24.18;58.59;100836.13;5052485;28;4204;-61
2022/06/30 07:50:16;;;;;;;;;;;;;;;24.23;59.01;100841.38;5052953;28;4194;-61
2022/06/30 07:52:43;;;;;;;;;;;;;;;24.37;58.38;100843.97;5055121;28;4174;-67
2022/06/30 07:55:09;;;;;;;;;;;;;;;24.29;58.51;100840.81;5055567;28;5185;-67
2022/06/30 07:57:36;;;;;;;;;;;;;;;24.28;58.18;100830.66;5054881;28;4386;-66
2022/06/30 08:00:03;;;;;;;;;;;;;;;24.23;58.60;100837.72;5055232;28;4269;-73
2022/06/30 08:02:36;;;;;;;;;;;;;;;24.19;58.84;100837.59;5057095;28;4103;-67
2022/06/30 08:05:03;;;;;;;;;;;;;;;24.09;58.85;100838.03;5055071;28;4036;-65
2022/06/30 08:07:29;;;;;;;;;;;;;;;24.27;58.63;100819.75;5052241;28;4187;-61
2022/06/30 08:09:56;;;;;;;;;;;;;;;24.21;58.57;100831.88;5055563;28;4252;-62
2022/06/30 08:12:22;;;;;;;;;;;;;;;24.22;59.21;100822.53;5050756;28;4131;-61
2022/06/30 08:14:48;;;;;;;;;;;;;;;24.37;58.46;100831.63;5056892;28;4153;-60
2022/06/30 08:17:15;;;;;;;;;;;;;;;24.42;58.42;100821.66;5057523;28;4224;-61
2022/06/30 08:19:41;;;;;;;;;;;;;;;24.44;58.47;100815.91;5053973;28;4193;-60
2022/06/30 08:22:08;;;;;;;;;;;;;;;24.46;58.58;100810.19;5056223;28;4383;-61
2022/06/30 08:24:37;;;;;;;;;;;;;;;24.46;58.66;100816.72;5051394;28;4373;-60
2022/06/30 08:27:03;;;;;;;;;;;;;;;24.51;58.45;100817.63;5056598;28;4038;-59
2022/06/30 08:29:32;;;;;;;;;;;;;;;24.51;58.77;100811.81;5054454;28;5383;-59
2022/06/30 08:31:59;;;;;;;;;;;;;;;24.52;59.05;100816.19;5051825;28;5324;-60
2022/06/30 08:34:25;;;;;;;;;;;;;;;24.40;59.24;100821.59;5044645;28;5248;-61
2022/06/30 08:36:52;;;;;;;;;;;;;;;24.48;59.50;100818.97;5054769;28;4272;-61
2022/06/30 08:42:04;;;;;;;;;;;;;;;24.40;60.27;100813.66;5056014;28;6404;-60
2022/06/30 08:44:31;;;;;;;;;;;;;;;24.41;60.38;100820.91;5056153;28;5210;-61
2022/06/30 08:46:58;;;;;;;;;;;;;;;24.46;59.91;100810.94;5054677;28;4229;-65
2022/06/30 08:49:26;;;;;;;;;;;;;;;24.42;60.18;100816.59;5053946;28;4214;-61
2022/06/30 08:51:53;;;;;;;;;;;;;;;24.54;59.82;100816.25;5046375;28;4066;-60
2022/06/30 08:54:25;;;;;;;;;;;;;;;24.59;59.91;100812.03;5057027;28;4564;-61
2022/06/30 08:56:51;;;;;;;;;;;;;;;24.51;59.96;100813.97;5052994;28;4212;-61
2022/06/30 08:59:19;;;;;;;;;;;;;;;24.44;60.51;100813.03;5040337;28;4558;-61
2022/06/30 09:01:54;;;;;;;;;;;;;;;24.61;60.14;100817.88;5054695;28;4765;-60
2022/06/30 09:04:21;;;;;;;;;;;;;;;24.65;59.86;100809.31;5048282;28;4244;-61
2022/06/30 09:06:48;;;;;;;;;;;;;;;24.54;59.80;100816.25;5052587;28;4258;-63
2022/06/30 09:09:14;;;;;;;;;;;;;;;24.62;60.19;100807.03;5048933;28;4250;-61
2022/06/30 09:11:45;;;;;;;;;;;;;;;24.56;60.20;100804.00;5048738;28;4775;-60
2022/06/30 09:14:21;;;;;;;;;;;;;;;24.65;60.08;100797.00;5055866;28;4897;-67
2022/06/30 09:16:53;;;;;;;;;;;;;;;24.71;59.52;100802.94;5050457;28;5116;-62
2022/06/30 09:19:20;;;;;;;;;;;;;;;24.76;58.88;100800.91;5049338;28;4129;-63
2022/06/30 09:22:01;;;;;;;;;;;;;;;24.74;59.77;100797.94;5049979;28;5821;-59
2022/06/30 09:24:27;;;;;;;;;;;;;;;24.72;60.32;100797.91;5051534;28;4192;-62
2022/06/30 09:27:19;;;;;;;;;;;;;;;24.65;60.41;100794.84;5053984;28;4280;-62
2022/06/30 09:30:04;;;;;;;;;;;;;;;24.73;60.37;100796.50;5045810;28;5431;-59
2022/06/30 09:32:57;;;;;;;;;;;;;;;24.71;60.60;100808.00;5053243;28;4208;-59
2022/06/30 09:35:24;;;;;;;;;;;;;;;24.70;60.47;100803.66;5053436;28;4289;-59
2022/06/30 09:37:58;;;;;;;;;;;;;;;24.72;60.57;100803.72;5053169;28;4271;-56
2022/06/30 09:40:31;;;;;;;;;;;;;;;24.81;59.94;100802.50;5050694;28;5248;-56
2022/06/30 09:42:58;;;;;;;;;;;;;;;24.82;59.78;100804.69;5055496;28;4233;-59
2022/06/30 09:45:40;;;;;;;;;;;;;;;24.80;59.84;100801.03;5054476;28;4376;-59
2022/06/30 09:48:07;;;;;;;;;;;;;;;24.83;59.65;100799.66;5050868;28;4143;-57
2022/06/30 09:50:33;;;;;;;;;;;;;;;24.83;59.41;100812.00;5051991;28;4255;-56
2022/06/30 09:53:10;;;;;;;;;;;;;;;24.79;59.81;100802.44;5053045;28;4073;-58
2022/06/30 09:55:47;;;;;;;;;;;;;;;24.92;59.61;100812.94;5045168;28;4220;-64
2022/06/30 09:58:15;;;;;;;;;;;;;;;24.89;59.89;100802.72;5047683;28;4233;-60
2022/06/30 10:00:42;;;;;;;;;;;;;;;24.86;59.56;100793.22;5048760;28;4225;-63
2022/06/30 10:03:08;;;;;;;;;;;;;;;25.19;58.66;100796.25;5054598;28;4327;-64
2022/06/30 10:05:35;;;;;;;;;;;;;;;25.15;58.06;100793.22;5052238;28;4247;-63
2022/06/30 10:08:01;;;;;;;;;;;;;;;25.15;58.09;100799.03;5048509;28;4159;-62
2022/06/30 10:10:29;;;;;;;;;;;;;;;25.15;57.89;100801.91;5053709;28;4228;-67
2022/06/30 10:12:55;;;;;;;;;;;;;;;25.14;58.32;100794.66;5051052;28;4164;-65
2022/06/30 10:15:22;;;;;;;;;;;;;;;25.18;58.09;100800.56;5051169;28;5661;-63
2022/06/30 10:17:50;;;;;;;;;;;;;;;25.14;58.39;100803.34;5046879;28;4217;-64
2022/06/30 10:20:21;;;;;;;;;;;;;;;25.17;57.68;100796.19;5049015;28;4245;-72
2022/06/30 10:22:47;;;;;;;;;;;;;;;25.14;58.64;100791.78;5051861;28;5281;-62
2022/06/30 10:25:14;;;;;;;;;;;;;;;25.39;57.34;100799.66;5053454;28;5329;-62
2022/06/30 10:27:40;;;;;;;;;;;;;;;25.50;57.37;100795.59;5052032;28;5192;-62
2022/06/30 10:30:09;;;;;;;;;;;;;;;25.21;57.85;100796.31;5047478;28;5406;-63
2022/06/30 10:32:54;;;;;;;;;;;;;;;25.04;58.98;100795.88;5049283;28;4193;-65
2022/06/30 10:35:27;;;;;;;;;;;;;;;25.06;58.98;100793.03;5048144;28;4251;-63
2022/06/30 10:38:03;;;;;;;;;;;;;;;24.95;59.79;100794.19;5049698;28;4252;-61
2022/06/30 10:40:32;;;;;;;;;;;;;;;25.26;58.83;100792.09;5047811;28;5310;-60
2022/06/30 10:42:58;;;;;;;;;;;;;;;25.28;58.44;100783.47;5048990;28;4233;-60
2022/06/30 10:45:30;;;;;;;;;;;;;;;25.14;59.19;100783.06;5052137;28;4076;-63
2022/06/30 10:47:57;;;;;;;;;;;;;;;25.13;59.24;100778.69;5046345;28;4139;-61
2022/06/30 10:50:42;;;;;;;;;;;;;;;25.30;58.66;100780.59;5053288;28;5247;-62
2022/06/30 10:53:09;;;;;;;;;;;;;;;25.40;58.36;100785.91;5046988;28;4610;-62
2022/06/30 10:55:43;;;;;;;;;;;;;;;25.87;58.08;100781.25;5044127;28;4262;-60
2022/06/30 10:58:09;;;;;;;;;;;;;;;26.23;56.59;100768.97;5052946;28;4236;-63
2022/06/30 11:00:43;;;;;;;;;;;;;;;26.19;56.33;100775.41;5053158;28;4173;-62
2022/06/30 11:03:11;;;;;;;;;;;;;;;26.35;56.12;100762.66;5055609;28;4217;-62
2022/06/30 11:05:48;;;;;;;;;;;;;;;26.40;55.74;100759.13;5048748;28;5450;-61
2022/06/30 11:08:35;;;;;;;;;;;;;;;26.15;56.07;100769.50;5056183;28;4056;-64
2022/06/30 11:11:19;;;;;;;;;;;;;;;26.23;56.21;100766.78;5055049;28;4209;-62
2022/06/30 11:13:46;;;;;;;;;;;;;;;26.35;55.94;100769.19;5048949;28;4190;-61
2022/06/30 11:16:15;;;;;;;;;;;;;;;26.12;56.08;100762.19;5050681;28;4253;-59
2022/06/30 11:18:42;;;;;;;;;;;;;;;26.01;56.32;100761.25;5054070;28;4136;-60
2022/06/30 11:21:08;;;;;;;;;;;;;;;25.97;56.37;100766.22;5053952;28;4010;-60
2022/06/30 11:23:38;;;;;;;;;;;;;;;26.19;56.55;100763.78;5058870;28;4233;-62
2022/06/30 11:28:50;;;;;;;;;;;;;;;26.52;55.56;100752.81;5061894;28;5532;-63
2022/06/30 11:31:23;;;;;;;;;;;;;;;26.61;54.97;100751.56;5052559;28;5191;-64
2022/06/30 11:33:50;;;;;;;;;;;;;;;26.17;55.94;100755.03;5055257;28;4271;-65
2022/06/30 11:36:17;;;;;;;;;;;;;;;26.08;55.60;100753.41;5053048;28;4262;-63
2022/06/30 11:38:43;;;;;;;;;;;;;;;25.88;56.02;100754.44;5052523;28;5301;-63
2022/06/30 11:43:56;;;;;;;;;;;;;;;26.11;56.00;100752.75;5055514;28;4241;-69
2022/06/30 11:46:22;;;;;;;;;;;;;;;26.21;56.40;100745.69;5058618;28;4134;-65
2022/06/30 11:48:49;;;;;;;;;;;;;;;26.07;55.64;100751.94;5058923;28;4206;-65
2022/06/30 11:51:15;;;;;;;;;;;;;;;26.22;55.88;100742.09;5058679;28;4153;-68
2022/06/30 11:53:42;;;;;;;;;;;;;;;26.34;54.99;100744.50;5055152;28;5308;-68
2022/06/30 11:56:08;;;;;;;;;;;;;;;26.13;55.93;100749.88;5057602;28;4500;-72
2022/06/30 11:58:34;;;;;;;;;;;;;;;26.16;55.44;100735.41;5057159;28;5268;-70
2022/06/30 12:01:10;;;;;;;;;;;;;;;26.04;55.49;100747.50;5051611;28;4360;-72
2022/06/30 12:03:37;;;;;;;;;;;;;;;25.81;56.13;100744.09;5051613;28;4010;-62
2022/06/30 12:06:04;;;;;;;;;;;;;;;25.57;57.01;100738.50;5053105;28;4212;-61
2022/06/30 12:08:30;;;;;;;;;;;;;;;25.44;57.65;100743.25;5042613;28;4272;-61
2022/06/30 12:10:57;;;;;;;;;;;;;;;25.37;57.92;100750.34;5057258;28;5354;-61
2022/06/30 12:13:24;;;;;;;;;;;;;;;25.48;57.90;100752.06;5049145;28;5307;-64
2022/06/30 12:15:51;;;;;;;;;;;;;;;25.59;57.45;100749.41;5055456;28;4316;-63
2022/06/30 12:18:21;;;;;;;;;;;;;;;25.70;57.10;100751.09;5052129;28;4555;-66
2022/06/30 12:20:53;;;;;;;;;;;;;;;25.80;57.41;100745.53;5051028;28;5471;-62
2022/06/30 12:23:20;;;;;;;;;;;;;;;25.76;57.35;100748.34;5058608;28;5216;-64
2022/06/30 12:25:46;;;;;;;;;;;;;;;25.70;57.46;100739.50;5055560;28;4089;-61
2022/06/30 12:28:12;;;;;;;;;;;;;;;25.66;57.58;100742.31;5047046;28;4187;-61
2022/06/30 12:30:39;;;;;;;;;;;;;;;25.75;57.67;100732.38;5053034;28;4136;-62
2022/06/30 12:33:06;;;;;;;;;;;;;;;25.74;57.51;100728.00;5052211;28;5292;-62
2022/06/30 12:35:33;;;;;;;;;;;;;;;25.80;57.42;100733.19;5054390;28;4216;-61
2022/06/30 12:38:16;;;;;;;;;;;;;;;25.72;57.06;100727.94;5047385;28;4241;-66
2022/06/30 12:40:43;;;;;;;;;;;;;;;25.67;57.55;100729.28;5053324;28;4218;-62
2022/06/30 12:43:17;;;;;;;;;;;;;;;25.63;57.44;100729.19;5048703;28;5386;-61
2022/06/30 12:45:46;;;;;;;;;;;;;;;25.77;57.58;100731.66;5056289;28;4182;-62
2022/06/30 12:48:13;;;;;;;;;;;;;;;25.90;57.52;100734.16;5050635;28;4192;-62
2022/06/30 12:50:41;;;;;;;;;;;;;;;25.79;57.28;100729.53;5052232;28;4232;-63
2022/06/30 12:53:17;;;;;;;;;;;;;;;25.83;57.38;100729.63;5053601;28;4330;-62
2022/06/30 12:56:00;;;;;;;;;;;;;;;25.83;57.18;100723.84;5052912;28;4221;-64
2022/06/30 12:58:41;;;;;;;;;;;;;;;25.70;57.51;100722.09;5052666;28;4270;-60
2022/06/30 13:01:07;;;;;;;;;;;;;;;25.72;57.65;100704.75;5048506;28;4259;-63
2022/06/30 13:03:45;;;;;;;;;;;;;;;25.75;57.38;100717.13;5030836;28;4197;-61
2022/06/30 13:06:11;;;;;;;;;;;;;;;25.81;58.19;100712.19;5053563;28;4256;-62
2022/06/30 13:08:38;;;;;;;;;;;;;;;25.83;57.45;100706.44;5048405;28;5035;-63
2022/06/30 13:11:07;;;;;;;;;;;;;;;25.79;57.45;100705.59;5050963;28;4215;-62